createdAt,value
2023-01-12T00:03:40.504Z,1.62
2023-01-12T00:18:40.820Z,0.48
2023-01-12T00:33:40.467Z,24.62
2023-01-12T00:48:40.253Z,1.08
2023-01-12T01:03:40.577Z,4.23
2023-01-12T01:18:40.316Z,2.29
2023-01-12T01:33:39.974Z,1.04
2023-01-12T01:48:40.675Z,0.2
2023-01-12T02:03:40.670Z,0.31
2023-01-12T02:18:40.384Z,1.1
2023-01-12T02:33:40.309Z,0.11
2023-01-12T02:48:40.190Z,0.14
2023-01-12T03:03:40.045Z,0.34
2023-01-12T03:18:40.067Z,0.28
2023-01-12T03:33:40.102Z,3.63
2023-01-12T03:48:40.163Z,0.47
2023-01-12T04:03:40.424Z,2.04
2023-01-12T04:18:40.446Z,0.75
2023-01-12T04:33:40.616Z,0.06
2023-01-12T04:48:40.135Z,7
2023-01-12T05:18:40.435Z,9.32
2023-01-12T05:33:40.216Z,10.92
2023-01-12T05:48:40.343Z,17.13
2023-01-12T06:03:40.657Z,7.83
2023-01-12T06:18:40.084Z,24.73
2023-01-12T06:33:40.715Z,77.38
2023-01-12T06:48:40.445Z,21.36
2023-01-12T07:03:40.873Z,3.78
2023-01-12T07:18:40.832Z,32.65
2023-01-12T07:33:40.169Z,43.67
2023-01-12T07:48:40.391Z,30.52
2023-01-12T08:03:39.909Z,9.15
2023-01-12T08:18:40.264Z,2.96
2023-01-12T08:33:40.383Z,10.43
2023-01-12T08:48:40.312Z,0.77
2023-01-12T09:03:40.306Z,12.28
2023-01-12T09:18:40.447Z,22.85
2023-01-12T09:33:40.235Z,18.79
2023-01-12T09:48:40.686Z,18.11
2023-01-12T10:03:40.775Z,39.89
2023-01-12T10:18:40.534Z,7.11
2023-01-12T10:33:40.202Z,10.37
2023-01-12T10:48:39.909Z,11.47
2023-01-12T11:03:40.262Z,2.57
2023-01-12T11:18:40.829Z,12.25
2023-01-12T11:33:40.200Z,8.29
2023-01-12T11:48:40.172Z,20.96
2023-01-12T12:03:40.233Z,8.24
2023-01-12T12:18:40.573Z,18.01
2023-01-12T12:33:40.527Z,10.8
2023-01-12T12:48:39.983Z,13.25
2023-01-12T13:03:40.407Z,20.98
2023-01-12T13:18:40.186Z,29.81
2023-01-12T13:33:40.087Z,37.76
2023-01-12T14:03:40.097Z,28.04
2023-01-12T14:18:40.356Z,44.94
2023-01-12T14:33:40.423Z,16.49
2023-01-12T14:48:40.211Z,24.4
2023-01-12T15:03:43.940Z,44.01
2023-01-12T15:18:40.393Z,36.62
2023-01-12T15:33:40.587Z,22.46
2023-01-12T15:48:40.584Z,24.64
2023-01-12T16:04:00.843Z,11.8
2023-01-12T16:18:40.327Z,33.9
2023-01-12T16:33:40.638Z,32.54
2023-01-12T16:48:40.010Z,83.72
2023-01-12T17:03:40.113Z,66.34
2023-01-12T17:18:40.115Z,61.3
2023-01-12T17:33:40.651Z,42.71
2023-01-12T17:48:40.110Z,48.9
2023-01-12T18:03:40.174Z,48.44
2023-01-12T18:18:40.078Z,42.56
2023-01-12T18:33:40.615Z,26.96
2023-01-12T18:48:40.102Z,45.99
2023-01-12T19:03:40.626Z,33.22
2023-01-12T19:18:40.344Z,31.26
2023-01-12T19:33:40.279Z,16.12
2023-01-12T19:48:40.273Z,19.9
2023-01-12T20:03:40.015Z,16.05
2023-01-12T20:18:40.673Z,20.75
2023-01-12T20:33:40.224Z,15.45
2023-01-12T20:48:40.842Z,22.94
2023-01-12T21:03:40.428Z,37.01
2023-01-12T21:18:40.458Z,38.04
2023-01-12T21:33:40.489Z,31.8
2023-01-12T21:48:39.950Z,26.89
2023-01-12T22:03:40.213Z,12.15
2023-01-12T22:48:40.727Z,12.63
2023-01-12T23:03:40.222Z,12.43
2023-01-12T23:18:40.427Z,13.08
2023-01-12T23:33:40.738Z,12.1
2023-01-12T23:48:40.655Z,8.02
